sensor_id;sensor_type;location;lat;lon;timestamp;P1;durP1;ratioP1;P2;durP2;ratioP2
25721;SDS011;13578;53.450;15.496;2023-04-16T00:00:42;7.25;;;5.03;;
25721;SDS011;13578;53.450;15.496;2023-04-16T00:03:43;7.28;;;4.72;;
25721;SDS011;13578;53.450;15.496;2023-04-16T00:06:44;8.52;;;4.88;;
25721;SDS011;13578;53.450;15.496;2023-04-16T00:09:44;6.75;;;4.50;;
25721;SDS011;13578;53.450;15.496;2023-04-16T00:12:45;9.18;;;5.03;;
25721;SDS011;13578;53.450;15.496;2023-04-16T00:15:46;5.28;;;4.03;;
25721;SDS011;13578;53.450;15.496;2023-04-16T00:18:47;6.47;;;4.25;;
25721;SDS011;13578;53.450;15.496;2023-04-16T00:21:47;7.93;;;4.47;;
25721;SDS011;13578;53.450;15.496;2023-04-16T00:24:48;6.40;;;4.43;;
25721;SDS011;13578;53.450;15.496;2023-04-16T00:27:48;5.53;;;4.13;;
25721;SDS011;13578;53.450;15.496;2023-04-16T00:30:49;5.78;;;4.93;;
25721;SDS011;13578;53.450;15.496;2023-04-16T00:33:50;6.13;;;4.15;;
25721;SDS011;13578;53.450;15.496;2023-04-16T00:36:50;9.52;;;4.57;;
25721;SDS011;13578;53.450;15.496;2023-04-16T00:39:51;6.85;;;4.88;;
25721;SDS011;13578;53.450;15.496;2023-04-16T00:42:51;5.70;;;4.95;;
25721;SDS011;13578;53.450;15.496;2023-04-16T00:45:52;6.57;;;4.57;;
25721;SDS011;13578;53.450;15.496;2023-04-16T00:48:55;8.85;;;4.70;;
25721;SDS011;13578;53.450;15.496;2023-04-16T00:51:56;6.28;;;4.88;;
25721;SDS011;13578;53.450;15.496;2023-04-16T00:54:57;6.13;;;4.10;;
25721;SDS011;13578;53.450;15.496;2023-04-16T00:57:58;6.55;;;4.70;;
25721;SDS011;13578;53.450;15.496;2023-04-16T01:00:59;8.27;;;4.80;;
25721;SDS011;13578;53.450;15.496;2023-04-16T01:04:00;9.57;;;5.10;;
25721;SDS011;13578;53.450;15.496;2023-04-16T01:07:01;4.47;;;4.05;;
25721;SDS011;13578;53.450;15.496;2023-04-16T01:10:02;10.30;;;5.20;;
25721;SDS011;13578;53.450;15.496;2023-04-16T01:13:03;6.70;;;4.50;;
25721;SDS011;13578;53.450;15.496;2023-04-16T01:16:07;5.82;;;4.60;;
25721;SDS011;13578;53.450;15.496;2023-04-16T01:19:09;7.93;;;5.85;;
25721;SDS011;13578;53.450;15.496;2023-04-16T01:22:09;5.95;;;4.15;;
25721;SDS011;13578;53.450;15.496;2023-04-16T01:25:12;6.53;;;4.03;;
25721;SDS011;13578;53.450;15.496;2023-04-16T01:28:14;6.00;;;4.45;;
25721;SDS011;13578;53.450;15.496;2023-04-16T01:31:14;5.47;;;4.40;;
25721;SDS011;13578;53.450;15.496;2023-04-16T01:34:15;8.68;;;4.47;;
25721;SDS011;13578;53.450;15.496;2023-04-16T01:37:16;6.75;;;4.22;;
25721;SDS011;13578;53.450;15.496;2023-04-16T01:40:16;5.53;;;4.40;;
25721;SDS011;13578;53.450;15.496;2023-04-16T01:43:17;6.90;;;4.45;;
25721;SDS011;13578;53.450;15.496;2023-04-16T01:46:27;6.20;;;4.43;;
25721;SDS011;13578;53.450;15.496;2023-04-16T01:49:29;7.88;;;4.18;;
25721;SDS011;13578;53.450;15.496;2023-04-16T01:52:30;8.43;;;4.50;;
25721;SDS011;13578;53.450;15.496;2023-04-16T01:55:34;4.57;;;3.75;;
25721;SDS011;13578;53.450;15.496;2023-04-16T01:58:34;5.80;;;3.92;;
25721;SDS011;13578;53.450;15.496;2023-04-16T02:01:35;6.10;;;4.43;;
25721;SDS011;13578;53.450;15.496;2023-04-16T02:04:36;6.75;;;3.70;;
25721;SDS011;13578;53.450;15.496;2023-04-16T02:07:38;5.22;;;4.10;;
25721;SDS011;13578;53.450;15.496;2023-04-16T02:10:38;5.40;;;4.05;;
25721;SDS011;13578;53.450;15.496;2023-04-16T02:13:39;6.88;;;4.70;;
25721;SDS011;13578;53.450;15.496;2023-04-16T02:16:39;10.35;;;4.60;;
25721;SDS011;13578;53.450;15.496;2023-04-16T02:19:40;5.57;;;4.50;;
25721;SDS011;13578;53.450;15.496;2023-04-16T02:22:41;6.28;;;4.47;;
25721;SDS011;13578;53.450;15.496;2023-04-16T02:25:43;5.15;;;4.00;;
25721;SDS011;13578;53.450;15.496;2023-04-16T02:28:45;7.20;;;4.45;;
25721;SDS011;13578;53.450;15.496;2023-04-16T02:31:45;7.95;;;4.80;;
25721;SDS011;13578;53.450;15.496;2023-04-16T02:34:46;7.85;;;4.68;;
25721;SDS011;13578;53.450;15.496;2023-04-16T02:37:47;6.70;;;4.65;;
25721;SDS011;13578;53.450;15.496;2023-04-16T02:40:47;5.47;;;4.22;;
25721;SDS011;13578;53.450;15.496;2023-04-16T02:43:48;8.63;;;4.47;;
25721;SDS011;13578;53.450;15.496;2023-04-16T02:46:48;6.10;;;4.50;;
25721;SDS011;13578;53.450;15.496;2023-04-16T02:49:49;8.15;;;5.57;;
25721;SDS011;13578;53.450;15.496;2023-04-16T02:52:50;7.25;;;4.68;;
25721;SDS011;13578;53.450;15.496;2023-04-16T02:55:51;5.85;;;4.53;;
25721;SDS011;13578;53.450;15.496;2023-04-16T02:58:53;5.13;;;4.18;;
25721;SDS011;13578;53.450;15.496;2023-04-16T03:01:53;7.82;;;4.65;;
25721;SDS011;13578;53.450;15.496;2023-04-16T03:04:54;14.30;;;6.75;;
25721;SDS011;13578;53.450;15.496;2023-04-16T03:07:55;6.95;;;5.20;;
25721;SDS011;13578;53.450;15.496;2023-04-16T03:10:56;12.77;;;4.88;;
25721;SDS011;13578;53.450;15.496;2023-04-16T03:13:57;5.68;;;4.65;;
25721;SDS011;13578;53.450;15.496;2023-04-16T03:16:57;6.82;;;5.43;;
25721;SDS011;13578;53.450;15.496;2023-04-16T03:19:58;6.88;;;4.47;;
25721;SDS011;13578;53.450;15.496;2023-04-16T03:22:59;7.32;;;4.50;;
25721;SDS011;13578;53.450;15.496;2023-04-16T03:25:59;8.45;;;5.60;;
25721;SDS011;13578;53.450;15.496;2023-04-16T03:29:00;5.38;;;4.57;;
25721;SDS011;13578;53.450;15.496;2023-04-16T03:32:03;8.02;;;4.63;;
25721;SDS011;13578;53.450;15.496;2023-04-16T03:35:04;8.65;;;5.05;;
25721;SDS011;13578;53.450;15.496;2023-04-16T03:38:06;8.57;;;4.97;;
25721;SDS011;13578;53.450;15.496;2023-04-16T03:41:06;9.68;;;5.40;;
25721;SDS011;13578;53.450;15.496;2023-04-16T03:44:07;5.78;;;4.80;;
25721;SDS011;13578;53.450;15.496;2023-04-16T03:47:08;5.95;;;4.82;;
25721;SDS011;13578;53.450;15.496;2023-04-16T03:50:08;9.10;;;5.45;;
25721;SDS011;13578;53.450;15.496;2023-04-16T03:53:10;7.53;;;5.28;;
25721;SDS011;13578;53.450;15.496;2023-04-16T03:56:11;7.03;;;5.03;;
25721;SDS011;13578;53.450;15.496;2023-04-16T03:59:11;9.73;;;6.28;;
25721;SDS011;13578;53.450;15.496;2023-04-16T04:02:12;7.85;;;5.32;;
25721;SDS011;13578;53.450;15.496;2023-04-16T04:05:13;8.25;;;5.72;;
25721;SDS011;13578;53.450;15.496;2023-04-16T04:08:13;11.88;;;5.97;;
25721;SDS011;13578;53.450;15.496;2023-04-16T04:11:14;8.38;;;6.13;;
25721;SDS011;13578;53.450;15.496;2023-04-16T04:14:15;10.50;;;6.95;;
25721;SDS011;13578;53.450;15.496;2023-04-16T04:17:15;9.32;;;6.82;;
25721;SDS011;13578;53.450;15.496;2023-04-16T04:20:16;7.30;;;6.25;;
25721;SDS011;13578;53.450;15.496;2023-04-16T04:23:17;9.98;;;6.20;;
25721;SDS011;13578;53.450;15.496;2023-04-16T04:26:17;12.52;;;6.57;;
25721;SDS011;13578;53.450;15.496;2023-04-16T04:29:18;10.30;;;7.60;;
25721;SDS011;13578;53.450;15.496;2023-04-16T04:32:18;10.68;;;6.82;;
25721;SDS011;13578;53.450;15.496;2023-04-16T04:35:19;12.45;;;6.28;;
25721;SDS011;13578;53.450;15.496;2023-04-16T04:38:20;11.75;;;6.70;;
25721;SDS011;13578;53.450;15.496;2023-04-16T04:41:24;10.98;;;5.93;;
25721;SDS011;13578;53.450;15.496;2023-04-16T04:44:26;12.43;;;7.03;;
25721;SDS011;13578;53.450;15.496;2023-04-16T04:47:26;8.85;;;6.47;;
25721;SDS011;13578;53.450;15.496;2023-04-16T04:50:27;8.68;;;6.13;;
25721;SDS011;13578;53.450;15.496;2023-04-16T04:53:27;11.80;;;7.18;;
25721;SDS011;13578;53.450;15.496;2023-04-16T04:56:28;7.45;;;5.85;;
25721;SDS011;13578;53.450;15.496;2023-04-16T04:59:28;8.73;;;6.22;;
25721;SDS011;13578;53.450;15.496;2023-04-16T05:02:29;8.55;;;6.50;;
25721;SDS011;13578;53.450;15.496;2023-04-16T05:05:30;9.25;;;6.90;;
25721;SDS011;13578;53.450;15.496;2023-04-16T05:08:31;9.85;;;6.88;;
25721;SDS011;13578;53.450;15.496;2023-04-16T05:11:32;12.05;;;6.88;;
25721;SDS011;13578;53.450;15.496;2023-04-16T05:14:33;8.45;;;6.28;;
25721;SDS011;13578;53.450;15.496;2023-04-16T05:17:35;9.43;;;6.13;;
25721;SDS011;13578;53.450;15.496;2023-04-16T05:20:35;9.15;;;6.47;;
25721;SDS011;13578;53.450;15.496;2023-04-16T05:23:36;9.57;;;6.63;;
25721;SDS011;13578;53.450;15.496;2023-04-16T05:26:37;9.02;;;6.50;;
25721;SDS011;13578;53.450;15.496;2023-04-16T05:29:38;9.57;;;6.63;;
25721;SDS011;13578;53.450;15.496;2023-04-16T05:32:38;10.10;;;6.72;;
25721;SDS011;13578;53.450;15.496;2023-04-16T05:35:40;10.80;;;6.90;;
25721;SDS011;13578;53.450;15.496;2023-04-16T05:38:40;9.77;;;7.20;;
25721;SDS011;13578;53.450;15.496;2023-04-16T05:41:41;10.10;;;6.97;;
25721;SDS011;13578;53.450;15.496;2023-04-16T05:44:42;9.60;;;6.95;;
25721;SDS011;13578;53.450;15.496;2023-04-16T05:47:42;11.15;;;6.63;;
25721;SDS011;13578;53.450;15.496;2023-04-16T05:50:43;8.93;;;6.35;;
25721;SDS011;13578;53.450;15.496;2023-04-16T05:53:44;14.27;;;7.25;;
25721;SDS011;13578;53.450;15.496;2023-04-16T05:56:44;11.18;;;6.30;;
25721;SDS011;13578;53.450;15.496;2023-04-16T05:59:48;11.20;;;6.70;;
25721;SDS011;13578;53.450;15.496;2023-04-16T06:02:49;11.40;;;8.10;;
25721;SDS011;13578;53.450;15.496;2023-04-16T06:05:50;9.52;;;7.38;;
25721;SDS011;13578;53.450;15.496;2023-04-16T06:08:50;9.80;;;7.05;;
25721;SDS011;13578;53.450;15.496;2023-04-16T06:11:51;9.68;;;6.93;;
25721;SDS011;13578;53.450;15.496;2023-04-16T06:14:52;9.10;;;6.70;;
25721;SDS011;13578;53.450;15.496;2023-04-16T06:17:53;12.60;;;6.78;;
25721;SDS011;13578;53.450;15.496;2023-04-16T06:20:53;10.48;;;7.43;;
25721;SDS011;13578;53.450;15.496;2023-04-16T06:23:54;9.52;;;7.03;;
25721;SDS011;13578;53.450;15.496;2023-04-16T06:26:55;9.95;;;6.72;;
25721;SDS011;13578;53.450;15.496;2023-04-16T06:29:56;10.75;;;6.65;;
25721;SDS011;13578;53.450;15.496;2023-04-16T06:32:57;22.80;;;8.80;;
25721;SDS011;13578;53.450;15.496;2023-04-16T06:35:58;11.88;;;7.85;;
25721;SDS011;13578;53.450;15.496;2023-04-16T06:38:58;16.05;;;9.38;;
25721;SDS011;13578;53.450;15.496;2023-04-16T06:41:59;14.45;;;8.93;;
25721;SDS011;13578;53.450;15.496;2023-04-16T06:45:00;15.07;;;9.35;;
25721;SDS011;13578;53.450;15.496;2023-04-16T06:48:01;15.48;;;10.57;;
25721;SDS011;13578;53.450;15.496;2023-04-16T06:51:02;13.48;;;9.60;;
25721;SDS011;13578;53.450;15.496;2023-04-16T06:54:03;12.95;;;9.60;;
25721;SDS011;13578;53.450;15.496;2023-04-16T06:57:04;12.45;;;8.40;;
25721;SDS011;13578;53.450;15.496;2023-04-16T07:00:05;10.75;;;7.13;;
25721;SDS011;13578;53.450;15.496;2023-04-16T07:03:06;11.85;;;7.05;;
25721;SDS011;13578;53.450;15.496;2023-04-16T07:06:06;10.43;;;6.50;;
25721;SDS011;13578;53.450;15.496;2023-04-16T07:09:07;8.43;;;6.88;;
25721;SDS011;13578;53.450;15.496;2023-04-16T07:12:07;10.38;;;6.85;;
25721;SDS011;13578;53.450;15.496;2023-04-16T07:15:08;10.48;;;7.40;;
25721;SDS011;13578;53.450;15.496;2023-04-16T07:18:09;11.05;;;7.05;;
25721;SDS011;13578;53.450;15.496;2023-04-16T07:21:10;15.18;;;7.50;;
25721;SDS011;13578;53.450;15.496;2023-04-16T07:24:11;12.38;;;8.10;;
25721;SDS011;13578;53.450;15.496;2023-04-16T07:27:11;12.82;;;7.40;;
25721;SDS011;13578;53.450;15.496;2023-04-16T07:30:12;10.85;;;7.68;;
25721;SDS011;13578;53.450;15.496;2023-04-16T07:33:13;18.17;;;8.23;;
25721;SDS011;13578;53.450;15.496;2023-04-16T07:36:13;12.70;;;8.38;;
25721;SDS011;13578;53.450;15.496;2023-04-16T07:39:14;11.55;;;7.20;;
25721;SDS011;13578;53.450;15.496;2023-04-16T07:42:15;10.80;;;6.82;;
25721;SDS011;13578;53.450;15.496;2023-04-16T07:45:16;11.30;;;7.30;;
25721;SDS011;13578;53.450;15.496;2023-04-16T07:48:17;9.23;;;6.43;;
25721;SDS011;13578;53.450;15.496;2023-04-16T07:51:17;8.75;;;6.80;;
25721;SDS011;13578;53.450;15.496;2023-04-16T07:54:18;8.55;;;6.50;;
25721;SDS011;13578;53.450;15.496;2023-04-16T07:57:20;11.10;;;7.05;;
25721;SDS011;13578;53.450;15.496;2023-04-16T08:00:20;9.68;;;6.75;;
25721;SDS011;13578;53.450;15.496;2023-04-16T08:03:21;9.98;;;7.15;;
25721;SDS011;13578;53.450;15.496;2023-04-16T08:06:22;9.18;;;7.10;;
25721;SDS011;13578;53.450;15.496;2023-04-16T08:09:25;10.60;;;8.10;;
25721;SDS011;13578;53.450;15.496;2023-04-16T08:12:26;11.13;;;7.47;;
25721;SDS011;13578;53.450;15.496;2023-04-16T08:15:29;10.10;;;8.00;;
25721;SDS011;13578;53.450;15.496;2023-04-16T08:18:30;14.85;;;7.53;;
25721;SDS011;13578;53.450;15.496;2023-04-16T08:21:31;10.07;;;6.45;;
25721;SDS011;13578;53.450;15.496;2023-04-16T08:24:32;10.23;;;6.20;;
25721;SDS011;13578;53.450;15.496;2023-04-16T08:27:33;7.97;;;5.80;;
25721;SDS011;13578;53.450;15.496;2023-04-16T08:30:34;8.35;;;4.97;;
25721;SDS011;13578;53.450;15.496;2023-04-16T08:33:34;6.93;;;5.03;;
25721;SDS011;13578;53.450;15.496;2023-04-16T08:36:35;7.82;;;5.72;;
25721;SDS011;13578;53.450;15.496;2023-04-16T08:39:36;8.77;;;6.68;;
25721;SDS011;13578;53.450;15.496;2023-04-16T08:42:39;6.80;;;5.43;;
25721;SDS011;13578;53.450;15.496;2023-04-16T08:45:44;7.10;;;5.07;;
25721;SDS011;13578;53.450;15.496;2023-04-16T08:48:46;5.25;;;4.32;;
25721;SDS011;13578;53.450;15.496;2023-04-16T08:51:51;7.45;;;4.80;;
25721;SDS011;13578;53.450;15.496;2023-04-16T08:55:00;6.07;;;3.85;;
25721;SDS011;13578;53.450;15.496;2023-04-16T08:58:11;4.55;;;3.78;;
25721;SDS011;13578;53.450;15.496;2023-04-16T09:01:13;5.88;;;3.97;;
25721;SDS011;13578;53.450;15.496;2023-04-16T09:04:16;4.18;;;3.45;;
25721;SDS011;13578;53.450;15.496;2023-04-16T09:07:18;4.25;;;3.05;;
25721;SDS011;13578;53.450;15.496;2023-04-16T09:10:21;3.95;;;3.33;;
25721;SDS011;13578;53.450;15.496;2023-04-16T09:13:22;4.25;;;3.15;;
25721;SDS011;13578;53.450;15.496;2023-04-16T09:16:23;3.45;;;2.40;;
25721;SDS011;13578;53.450;15.496;2023-04-16T09:19:24;3.08;;;2.78;;
25721;SDS011;13578;53.450;15.496;2023-04-16T09:22:25;2.80;;;2.28;;
25721;SDS011;13578;53.450;15.496;2023-04-16T09:25:25;2.47;;;2.28;;
25721;SDS011;13578;53.450;15.496;2023-04-16T09:32:00;3.63;;;2.47;;
25721;SDS011;13578;53.450;15.496;2023-04-16T09:35:05;4.32;;;2.47;;
25721;SDS011;13578;53.450;15.496;2023-04-16T09:38:06;3.65;;;2.78;;
25721;SDS011;13578;53.450;15.496;2023-04-16T09:41:06;3.45;;;2.53;;
25721;SDS011;13578;53.450;15.496;2023-04-16T09:44:07;2.35;;;1.90;;
25721;SDS011;13578;53.450;15.496;2023-04-16T09:47:08;2.80;;;2.47;;
25721;SDS011;13578;53.450;15.496;2023-04-16T09:50:13;3.22;;;2.58;;
25721;SDS011;13578;53.450;15.496;2023-04-16T09:53:21;2.60;;;2.17;;
25721;SDS011;13578;53.450;15.496;2023-04-16T09:56:26;3.00;;;2.20;;
25721;SDS011;13578;53.450;15.496;2023-04-16T09:59:29;3.83;;;2.20;;
25721;SDS011;13578;53.450;15.496;2023-04-16T10:02:33;3.45;;;2.72;;
25721;SDS011;13578;53.450;15.496;2023-04-16T10:05:34;2.75;;;2.30;;
25721;SDS011;13578;53.450;15.496;2023-04-16T10:08:35;5.15;;;2.70;;
25721;SDS011;13578;53.450;15.496;2023-04-16T10:11:36;3.10;;;2.10;;
25721;SDS011;13578;53.450;15.496;2023-04-16T10:14:37;3.10;;;2.10;;
25721;SDS011;13578;53.450;15.496;2023-04-16T10:17:38;2.10;;;1.90;;
25721;SDS011;13578;53.450;15.496;2023-04-16T10:20:38;2.45;;;2.25;;
25721;SDS011;13578;53.450;15.496;2023-04-16T10:23:40;2.08;;;1.88;;
25721;SDS011;13578;53.450;15.496;2023-04-16T10:26:41;3.00;;;2.30;;
25721;SDS011;13578;53.450;15.496;2023-04-16T10:29:43;2.40;;;2.10;;
25721;SDS011;13578;53.450;15.496;2023-04-16T10:32:45;1.95;;;1.65;;
25721;SDS011;13578;53.450;15.496;2023-04-16T10:35:46;4.43;;;2.17;;
25721;SDS011;13578;53.450;15.496;2023-04-16T10:38:50;2.65;;;1.92;;
25721;SDS011;13578;53.450;15.496;2023-04-16T10:42:08;2.53;;;1.80;;
25721;SDS011;13578;53.450;15.496;2023-04-16T10:45:10;3.83;;;2.05;;
25721;SDS011;13578;53.450;15.496;2023-04-16T10:48:11;2.50;;;2.30;;
25721;SDS011;13578;53.450;15.496;2023-04-16T10:51:22;1.95;;;1.75;;
25721;SDS011;13578;53.450;15.496;2023-04-16T10:54:29;2.22;;;2.03;;
25721;SDS011;13578;53.450;15.496;2023-04-16T10:57:30;2.10;;;1.85;;
25721;SDS011;13578;53.450;15.496;2023-04-16T11:00:30;1.92;;;1.63;;
25721;SDS011;13578;53.450;15.496;2023-04-16T11:03:47;1.90;;;1.80;;
25721;SDS011;13578;53.450;15.496;2023-04-16T11:07:01;1.73;;;1.63;;
25721;SDS011;13578;53.450;15.496;2023-04-16T11:10:14;1.70;;;1.55;;
25721;SDS011;13578;53.450;15.496;2023-04-16T11:13:14;1.90;;;1.75;;
25721;SDS011;13578;53.450;15.496;2023-04-16T11:16:17;2.00;;;1.80;;
25721;SDS011;13578;53.450;15.496;2023-04-16T11:19:17;1.35;;;1.20;;
25721;SDS011;13578;53.450;15.496;2023-04-16T11:22:18;4.18;;;1.77;;
25721;SDS011;13578;53.450;15.496;2023-04-16T11:25:19;1.60;;;1.50;;
25721;SDS011;13578;53.450;15.496;2023-04-16T11:28:33;1.58;;;1.48;;
25721;SDS011;13578;53.450;15.496;2023-04-16T11:31:35;4.60;;;2.17;;
25721;SDS011;13578;53.450;15.496;2023-04-16T11:34:42;2.78;;;2.08;;
25721;SDS011;13578;53.450;15.496;2023-04-16T11:37:45;2.83;;;2.60;;
25721;SDS011;13578;53.450;15.496;2023-04-16T11:40:48;4.28;;;3.00;;
25721;SDS011;13578;53.450;15.496;2023-04-16T11:43:50;3.72;;;2.50;;
25721;SDS011;13578;53.450;15.496;2023-04-16T11:46:51;2.70;;;2.33;;
25721;SDS011;13578;53.450;15.496;2023-04-16T11:49:53;3.38;;;2.58;;
25721;SDS011;13578;53.450;15.496;2023-04-16T11:52:58;2.90;;;2.60;;
25721;SDS011;13578;53.450;15.496;2023-04-16T11:56:03;2.88;;;2.55;;
25721;SDS011;13578;53.450;15.496;2023-04-16T11:59:11;2.95;;;2.35;;
25721;SDS011;13578;53.450;15.496;2023-04-16T12:02:12;2.95;;;2.42;;
25721;SDS011;13578;53.450;15.496;2023-04-16T12:08:33;2.67;;;2.10;;
25721;SDS011;13578;53.450;15.496;2023-04-16T12:11:38;2.95;;;2.38;;
25721;SDS011;13578;53.450;15.496;2023-04-16T12:14:48;3.20;;;2.03;;
25721;SDS011;13578;53.450;15.496;2023-04-16T12:18:06;3.38;;;2.00;;
25721;SDS011;13578;53.450;15.496;2023-04-16T12:21:09;1.90;;;1.70;;
25721;SDS011;13578;53.450;15.496;2023-04-16T12:24:10;1.95;;;1.75;;
25721;SDS011;13578;53.450;15.496;2023-04-16T12:27:12;1.52;;;1.40;;
25721;SDS011;13578;53.450;15.496;2023-04-16T12:30:15;1.75;;;1.40;;
25721;SDS011;13578;53.450;15.496;2023-04-16T12:33:21;1.48;;;1.10;;
25721;SDS011;13578;53.450;15.496;2023-04-16T12:36:22;1.13;;;0.95;;
25721;SDS011;13578;53.450;15.496;2023-04-16T12:39:23;1.48;;;1.30;;
25721;SDS011;13578;53.450;15.496;2023-04-16T12:54:15;1.20;;;1.10;;
25721;SDS011;13578;53.450;15.496;2023-04-16T12:57:15;1.40;;;1.30;;
25721;SDS011;13578;53.450;15.496;2023-04-16T13:00:16;1.75;;;1.50;;
25721;SDS011;13578;53.450;15.496;2023-04-16T13:03:17;2.17;;;1.30;;
25721;SDS011;13578;53.450;15.496;2023-04-16T13:06:19;1.60;;;1.50;;
25721;SDS011;13578;53.450;15.496;2023-04-16T13:09:20;1.10;;;0.90;;
25721;SDS011;13578;53.450;15.496;2023-04-16T13:12:21;0.80;;;0.80;;
25721;SDS011;13578;53.450;15.496;2023-04-16T13:15:21;1.83;;;1.23;;
25721;SDS011;13578;53.450;15.496;2023-04-16T13:18:23;1.70;;;0.90;;
25721;SDS011;13578;53.450;15.496;2023-04-16T13:21:25;1.30;;;1.08;;
25721;SDS011;13578;53.450;15.496;2023-04-16T13:24:26;2.15;;;1.02;;
25721;SDS011;13578;53.450;15.496;2023-04-16T13:27:27;0.90;;;0.85;;
25721;SDS011;13578;53.450;15.496;2023-04-16T13:30:27;1.40;;;1.20;;
25721;SDS011;13578;53.450;15.496;2023-04-16T13:33:28;1.10;;;1.00;;
25721;SDS011;13578;53.450;15.496;2023-04-16T13:36:29;1.35;;;1.10;;
25721;SDS011;13578;53.450;15.496;2023-04-16T13:39:32;1.25;;;1.08;;
25721;SDS011;13578;53.450;15.496;2023-04-16T13:42:33;1.85;;;1.20;;
25721;SDS011;13578;53.450;15.496;2023-04-16T13:45:33;1.27;;;1.17;;
25721;SDS011;13578;53.450;15.496;2023-04-16T13:48:34;0.93;;;0.80;;
25721;SDS011;13578;53.450;15.496;2023-04-16T13:51:35;1.10;;;1.00;;
25721;SDS011;13578;53.450;15.496;2023-04-16T13:54:36;1.45;;;1.00;;
25721;SDS011;13578;53.450;15.496;2023-04-16T13:57:37;2.15;;;0.75;;
25721;SDS011;13578;53.450;15.496;2023-04-16T14:00:38;1.25;;;1.10;;
25721;SDS011;13578;53.450;15.496;2023-04-16T14:03:39;1.15;;;1.05;;
25721;SDS011;13578;53.450;15.496;2023-04-16T14:06:40;1.55;;;1.23;;
25721;SDS011;13578;53.450;15.496;2023-04-16T14:09:44;1.10;;;1.00;;
25721;SDS011;13578;53.450;15.496;2023-04-16T14:12:47;1.37;;;1.07;;
25721;SDS011;13578;53.450;15.496;2023-04-16T14:15:49;1.30;;;0.90;;
25721;SDS011;13578;53.450;15.496;2023-04-16T14:18:49;1.45;;;1.10;;
25721;SDS011;13578;53.450;15.496;2023-04-16T14:21:50;1.20;;;0.80;;
25721;SDS011;13578;53.450;15.496;2023-04-16T14:24:51;1.35;;;1.10;;
25721;SDS011;13578;53.450;15.496;2023-04-16T14:27:52;8.90;;;1.48;;
25721;SDS011;13578;53.450;15.496;2023-04-16T14:30:52;1.27;;;1.10;;
25721;SDS011;13578;53.450;15.496;2023-04-16T14:33:53;1.17;;;1.08;;
25721;SDS011;13578;53.450;15.496;2023-04-16T14:36:53;1.90;;;1.30;;
25721;SDS011;13578;53.450;15.496;2023-04-16T14:39:54;0.95;;;0.90;;
25721;SDS011;13578;53.450;15.496;2023-04-16T14:42:55;0.85;;;0.80;;
25721;SDS011;13578;53.450;15.496;2023-04-16T14:45:56;1.05;;;0.80;;
25721;SDS011;13578;53.450;15.496;2023-04-16T14:48:57;1.13;;;1.00;;
25721;SDS011;13578;53.450;15.496;2023-04-16T14:51:59;0.82;;;0.80;;
25721;SDS011;13578;53.450;15.496;2023-04-16T14:55:05;1.60;;;0.93;;
25721;SDS011;13578;53.450;15.496;2023-04-16T14:58:06;1.95;;;1.05;;
25721;SDS011;13578;53.450;15.496;2023-04-16T15:01:07;1.70;;;1.20;;
25721;SDS011;13578;53.450;15.496;2023-04-16T15:04:09;1.73;;;1.10;;
25721;SDS011;13578;53.450;15.496;2023-04-16T15:07:10;1.40;;;1.05;;
25721;SDS011;13578;53.450;15.496;2023-04-16T15:10:12;0.90;;;0.90;;
25721;SDS011;13578;53.450;15.496;2023-04-16T15:13:13;1.65;;;0.85;;
25721;SDS011;13578;53.450;15.496;2023-04-16T15:16:14;1.50;;;0.80;;
25721;SDS011;13578;53.450;15.496;2023-04-16T15:19:15;1.00;;;0.90;;
25721;SDS011;13578;53.450;15.496;2023-04-16T15:22:16;1.15;;;0.90;;
25721;SDS011;13578;53.450;15.496;2023-04-16T15:25:17;1.60;;;1.20;;
25721;SDS011;13578;53.450;15.496;2023-04-16T15:28:18;1.20;;;1.10;;
25721;SDS011;13578;53.450;15.496;2023-04-16T15:31:18;1.48;;;1.20;;
25721;SDS011;13578;53.450;15.496;2023-04-16T15:34:19;1.63;;;0.80;;
25721;SDS011;13578;53.450;15.496;2023-04-16T15:37:20;2.17;;;1.10;;
25721;SDS011;13578;53.450;15.496;2023-04-16T15:40:21;1.40;;;1.20;;
25721;SDS011;13578;53.450;15.496;2023-04-16T15:43:21;1.85;;;1.10;;
25721;SDS011;13578;53.450;15.496;2023-04-16T15:46:25;1.10;;;1.00;;
25721;SDS011;13578;53.450;15.496;2023-04-16T15:49:27;1.30;;;1.20;;
25721;SDS011;13578;53.450;15.496;2023-04-16T15:52:27;1.30;;;1.20;;
25721;SDS011;13578;53.450;15.496;2023-04-16T15:55:28;1.30;;;1.15;;
25721;SDS011;13578;53.450;15.496;2023-04-16T15:58:28;1.67;;;1.50;;
25721;SDS011;13578;53.450;15.496;2023-04-16T16:01:29;2.05;;;1.50;;
25721;SDS011;13578;53.450;15.496;2023-04-16T16:04:30;1.33;;;1.10;;
25721;SDS011;13578;53.450;15.496;2023-04-16T16:07:30;1.30;;;1.20;;
25721;SDS011;13578;53.450;15.496;2023-04-16T16:10:31;1.38;;;1.13;;
25721;SDS011;13578;53.450;15.496;2023-04-16T16:13:32;1.50;;;1.40;;
25721;SDS011;13578;53.450;15.496;2023-04-16T16:16:33;1.23;;;1.10;;
25721;SDS011;13578;53.450;15.496;2023-04-16T16:19:34;1.77;;;1.25;;
25721;SDS011;13578;53.450;15.496;2023-04-16T16:22:35;6.75;;;1.52;;
25721;SDS011;13578;53.450;15.496;2023-04-16T16:25:37;2.22;;;1.60;;
25721;SDS011;13578;53.450;15.496;2023-04-16T16:28:38;2.38;;;1.88;;
25721;SDS011;13578;53.450;15.496;2023-04-16T16:31:40;4.25;;;2.72;;
25721;SDS011;13578;53.450;15.496;2023-04-16T16:34:40;2.63;;;2.08;;
25721;SDS011;13578;53.450;15.496;2023-04-16T16:37:41;3.97;;;2.40;;
25721;SDS011;13578;53.450;15.496;2023-04-16T16:40:41;2.92;;;2.30;;
25721;SDS011;13578;53.450;15.496;2023-04-16T16:43:42;3.90;;;2.40;;
25721;SDS011;13578;53.450;15.496;2023-04-16T16:46:43;4.07;;;2.80;;
25721;SDS011;13578;53.450;15.496;2023-04-16T16:49:43;5.78;;;2.80;;
25721;SDS011;13578;53.450;15.496;2023-04-16T16:52:47;3.72;;;3.13;;
25721;SDS011;13578;53.450;15.496;2023-04-16T16:55:48;3.80;;;2.75;;
25721;SDS011;13578;53.450;15.496;2023-04-16T16:58:48;3.22;;;2.90;;
25721;SDS011;13578;53.450;15.496;2023-04-16T17:01:49;2.90;;;2.42;;
25721;SDS011;13578;53.450;15.496;2023-04-16T17:04:50;4.03;;;2.90;;
25721;SDS011;13578;53.450;15.496;2023-04-16T17:07:51;3.03;;;2.67;;
25721;SDS011;13578;53.450;15.496;2023-04-16T17:10:52;7.70;;;3.65;;
25721;SDS011;13578;53.450;15.496;2023-04-16T17:13:53;5.47;;;3.50;;
25721;SDS011;13578;53.450;15.496;2023-04-16T17:16:53;5.88;;;3.72;;
25721;SDS011;13578;53.450;15.496;2023-04-16T17:19:54;6.43;;;3.72;;
25721;SDS011;13578;53.450;15.496;2023-04-16T17:22:54;4.85;;;3.65;;
25721;SDS011;13578;53.450;15.496;2023-04-16T17:25:55;7.22;;;3.97;;
25721;SDS011;13578;53.450;15.496;2023-04-16T17:28:58;6.82;;;3.85;;
25721;SDS011;13578;53.450;15.496;2023-04-16T17:31:59;4.65;;;3.60;;
25721;SDS011;13578;53.450;15.496;2023-04-16T17:35:00;8.55;;;4.45;;
25721;SDS011;13578;53.450;15.496;2023-04-16T17:38:02;5.88;;;4.40;;
25721;SDS011;13578;53.450;15.496;2023-04-16T17:41:03;6.75;;;4.32;;
25721;SDS011;13578;53.450;15.496;2023-04-16T17:44:04;6.95;;;4.30;;
25721;SDS011;13578;53.450;15.496;2023-04-16T17:47:05;5.80;;;4.13;;
25721;SDS011;13578;53.450;15.496;2023-04-16T17:50:06;5.60;;;4.05;;
25721;SDS011;13578;53.450;15.496;2023-04-16T17:53:07;6.47;;;4.50;;
25721;SDS011;13578;53.450;15.496;2023-04-16T17:56:08;5.03;;;3.97;;
25721;SDS011;13578;53.450;15.496;2023-04-16T17:59:08;9.60;;;4.93;;
25721;SDS011;13578;53.450;15.496;2023-04-16T18:02:09;5.50;;;4.15;;
25721;SDS011;13578;53.450;15.496;2023-04-16T18:05:09;6.65;;;4.50;;
25721;SDS011;13578;53.450;15.496;2023-04-16T18:08:10;7.20;;;4.57;;
25721;SDS011;13578;53.450;15.496;2023-04-16T18:11:11;8.23;;;5.25;;
25721;SDS011;13578;53.450;15.496;2023-04-16T18:14:12;7.80;;;5.07;;